createdAt,value
2023-02-23T00:02:07.476Z,66.92
2023-02-23T00:04:35.928Z,67.00
2023-02-23T00:07:03.383Z,66.82
2023-02-23T00:09:35.759Z,66.89
2023-02-23T00:12:08.326Z,67.11
2023-02-23T00:14:38.594Z,67.01
2023-02-23T00:17:14.969Z,67.10
2023-02-23T00:19:44.005Z,66.90
2023-02-23T00:22:12.347Z,67.22
2023-02-23T00:24:40.771Z,67.41
2023-02-23T00:27:07.882Z,67.23
2023-02-23T00:29:39.596Z,67.29
2023-02-23T00:32:06.917Z,67.33
2023-02-23T00:34:36.096Z,67.28
2023-02-23T00:37:03.954Z,67.09
2023-02-23T00:39:30.841Z,67.41
2023-02-23T00:42:03.329Z,67.49
2023-02-23T00:44:32.523Z,67.54
2023-02-23T00:47:00.351Z,67.49
2023-02-23T00:49:27.682Z,67.47
2023-02-23T00:51:55.440Z,67.47
2023-02-23T00:54:22.519Z,67.71
2023-02-23T00:56:50.644Z,67.59
2023-02-23T00:59:19.876Z,67.78
2023-02-23T01:01:47.107Z,67.60
2023-02-23T01:04:14.763Z,67.94
2023-02-23T01:06:42.704Z,67.96
2023-02-23T01:09:13.693Z,67.78
2023-02-23T01:11:41.702Z,68.09
2023-02-23T01:14:10.603Z,68.03
2023-02-23T01:16:39.156Z,68.10
2023-02-23T01:19:06.457Z,67.96
2023-02-23T01:21:40.239Z,67.95
2023-02-23T01:24:07.437Z,67.82
2023-02-23T01:26:38.687Z,67.86
2023-02-23T01:29:15.210Z,67.87
2023-02-23T01:31:45.398Z,67.83
2023-02-23T01:34:15.811Z,67.86
2023-02-23T01:36:45.266Z,67.95
2023-02-23T01:39:17.791Z,68.15
2023-02-23T01:41:45.501Z,68.00
2023-02-23T01:44:15.518Z,68.34
2023-02-23T01:46:45.612Z,68.28
2023-02-23T01:49:16.496Z,68.43
2023-02-23T01:51:50.332Z,68.64
2023-02-23T01:54:25.052Z,68.80
2023-02-23T01:56:58.573Z,68.67
2023-02-23T01:59:38.340Z,68.66
2023-02-23T02:02:05.798Z,68.72
2023-02-23T02:04:44.848Z,68.72
2023-02-23T02:07:20.860Z,68.96
2023-02-23T02:10:10.057Z,68.70
2023-02-23T02:12:52.202Z,68.96
2023-02-23T02:15:22.698Z,68.70
2023-02-23T02:18:09.585Z,68.85
2023-02-23T02:21:11.817Z,68.99
2023-02-23T02:23:42.249Z,68.97
2023-02-23T02:26:39.031Z,68.92
2023-02-23T02:29:11.942Z,68.72
2023-02-23T02:32:01.595Z,69.01
2023-02-23T02:35:05.180Z,68.76
2023-02-23T02:38:11.028Z,68.78
2023-02-23T02:41:01.792Z,68.82
2023-02-23T02:43:38.102Z,68.94
2023-02-23T02:46:16.218Z,69.13
2023-02-23T02:49:14.314Z,69.04
2023-02-23T02:51:47.581Z,68.97
2023-02-23T02:54:43.944Z,68.93
2023-02-23T02:57:13.972Z,68.77
2023-02-23T03:00:04.973Z,69.03
2023-02-23T03:02:53.335Z,68.92
2023-02-23T03:05:42.900Z,68.99
2023-02-23T03:08:37.624Z,68.93
2023-02-23T03:11:29.708Z,68.71
2023-02-23T03:14:41.178Z,68.99
2023-02-23T03:17:46.758Z,68.95
2023-02-23T03:20:51.435Z,68.82
2023-02-23T03:23:58.632Z,68.94
2023-02-23T03:26:55.263Z,68.83
2023-02-23T03:29:44.102Z,68.73
2023-02-23T03:32:39.807Z,68.90
2023-02-23T03:35:32.257Z,68.60
2023-02-23T03:38:46.043Z,68.57
2023-02-23T03:41:35.017Z,68.92
2023-02-23T03:44:31.677Z,68.71
2023-02-23T03:47:19.825Z,68.77
2023-02-23T03:50:08.494Z,68.76
2023-02-23T03:53:01.736Z,69.08
2023-02-23T03:55:53.113Z,68.80
2023-02-23T03:58:47.110Z,68.84
2023-02-23T04:01:35.749Z,68.60
2023-02-23T04:04:23.378Z,68.89
2023-02-23T04:07:11.261Z,68.72
2023-02-23T04:09:57.042Z,68.64
2023-02-23T04:12:59.046Z,68.73
2023-02-23T04:15:34.131Z,68.94
2023-02-23T04:18:04.957Z,68.71
2023-02-23T04:20:32.539Z,68.86
2023-02-23T04:23:00.219Z,68.62
2023-02-23T04:25:28.635Z,68.82
2023-02-23T04:27:56.006Z,68.95
2023-02-23T04:30:28.690Z,68.74
2023-02-23T04:32:56.798Z,68.77
2023-02-23T04:35:23.952Z,68.67
2023-02-23T04:37:51.161Z,68.76
2023-02-23T04:40:18.726Z,68.85
2023-02-23T04:42:46.378Z,68.55
2023-02-23T04:45:15.061Z,68.72
2023-02-23T04:47:42.392Z,68.80
2023-02-23T04:50:10.435Z,68.73
2023-02-23T04:52:39.181Z,68.99
2023-02-23T04:55:08.629Z,68.86
2023-02-23T04:57:36.270Z,68.95
2023-02-23T05:00:04.926Z,68.78
2023-02-23T05:02:32.414Z,68.86
2023-02-23T05:04:59.538Z,68.86
2023-02-23T05:07:26.687Z,68.91
2023-02-23T05:09:53.900Z,69.08
2023-02-23T05:12:21.177Z,69.02
2023-02-23T05:14:48.289Z,69.13
2023-02-23T05:17:15.577Z,69.29
2023-02-23T05:19:42.835Z,69.17
2023-02-23T05:22:12.858Z,69.33
2023-02-23T05:24:41.084Z,69.35
2023-02-23T05:27:20.366Z,69.22
2023-02-23T05:29:51.723Z,69.39
2023-02-23T05:32:18.932Z,69.28
2023-02-23T05:35:06.107Z,69.37
2023-02-23T05:40:45.494Z,69.30
2023-02-23T05:43:14.677Z,69.29
2023-02-23T05:45:43.407Z,69.32
2023-02-23T07:56:12.580Z,70.05
2023-02-23T08:25:02.093Z,70.18
2023-02-23T08:27:29.383Z,70.26
2023-02-23T08:29:56.885Z,70.36
2023-02-23T08:32:23.733Z,70.67
2023-02-23T08:34:50.603Z,70.65
2023-02-23T08:37:17.414Z,70.62
2023-02-23T08:39:44.406Z,70.70
2023-02-23T08:42:11.136Z,70.96
2023-02-23T08:44:37.935Z,70.82
2023-02-23T08:47:05.134Z,71.04
2023-02-23T08:49:33.157Z,70.83
2023-02-23T08:51:59.917Z,70.65
2023-02-23T08:54:27.259Z,70.59
2023-02-23T08:56:56.971Z,70.71
2023-02-23T08:59:24.042Z,70.88
2023-02-23T09:01:50.858Z,70.72
2023-02-23T09:04:18.689Z,70.69
2023-02-23T09:06:47.623Z,70.82
2023-02-23T09:09:14.933Z,70.76
2023-02-23T09:24:28.864Z,70.63
2023-02-23T09:27:07.327Z,70.46
2023-02-23T09:29:38.265Z,70.35
2023-02-23T09:32:05.548Z,70.29
2023-02-23T09:34:32.662Z,70.30
2023-02-23T09:37:02.891Z,70.18
2023-02-23T09:39:38.252Z,70.27
2023-02-23T09:42:08.727Z,70.26
2023-02-23T09:45:13.448Z,70.26
2023-02-23T09:47:55.054Z,70.24
2023-02-23T09:50:25.713Z,70.10
2023-02-23T09:53:01.330Z,70.04
2023-02-23T09:55:29.426Z,69.86
2023-02-23T09:58:02.412Z,69.48
2023-02-23T10:00:31.361Z,69.50
2023-02-23T10:03:22.470Z,69.46
2023-02-23T10:05:58.561Z,69.66
2023-02-23T10:08:49.467Z,69.51
2023-02-23T10:11:24.005Z,69.62
2023-02-23T10:14:20.759Z,69.42
2023-02-23T10:17:01.093Z,69.37
2023-02-23T10:20:00.135Z,69.42
2023-02-23T10:22:29.077Z,69.42
2023-02-23T10:25:03.311Z,69.53
2023-02-23T10:27:37.961Z,69.54
2023-02-23T10:30:24.343Z,69.54
2023-02-23T10:32:59.490Z,69.35
2023-02-23T10:35:29.693Z,69.71
2023-02-23T10:37:58.083Z,69.66
2023-02-23T10:40:28.970Z,69.58
2023-02-23T10:42:58.423Z,69.71
2023-02-23T10:45:27.635Z,69.27
2023-02-23T10:48:02.042Z,69.61
2023-02-23T10:50:32.171Z,69.50
2023-02-23T10:53:24.570Z,69.66
2023-02-23T10:56:16.303Z,69.68
2023-02-23T10:58:58.142Z,69.72
2023-02-23T11:02:00.872Z,69.66
2023-02-23T11:04:35.225Z,69.58
2023-02-23T11:07:10.265Z,69.36
2023-02-23T11:09:46.596Z,69.48
2023-02-23T11:12:25.647Z,69.07
2023-02-23T11:14:55.279Z,69.44
2023-02-23T11:17:30.414Z,69.60
2023-02-23T11:20:02.510Z,69.50
2023-02-23T11:22:37.559Z,69.68
2023-02-23T11:25:17.024Z,69.43
2023-02-23T11:27:51.808Z,69.69
2023-02-23T11:30:24.433Z,69.62
2023-02-23T11:32:54.893Z,69.80
2023-02-23T11:35:21.805Z,69.78
2023-02-23T11:37:50.970Z,69.72
2023-02-23T11:40:26.460Z,69.76
2023-02-23T11:43:10.793Z,69.74
2023-02-23T11:45:49.395Z,69.75
2023-02-23T11:48:26.645Z,69.70
2023-02-23T11:50:55.118Z,69.83
2023-02-23T11:53:37.968Z,70.00
2023-02-23T11:56:13.367Z,69.70
2023-02-23T11:58:45.107Z,70.05
2023-02-23T12:01:17.410Z,70.22
2023-02-23T12:03:56.006Z,70.09
2023-02-23T12:06:39.540Z,70.03
2023-02-23T12:09:24.189Z,70.20
2023-02-23T12:12:00.912Z,70.25
2023-02-23T12:14:39.108Z,70.27
2023-02-23T12:17:38.000Z,70.29
2023-02-23T12:20:24.528Z,70.46
2023-02-23T12:22:59.206Z,70.41
2023-02-23T12:25:57.818Z,70.50
2023-02-23T12:29:20.612Z,70.50
2023-02-23T12:31:54.124Z,70.45
2023-02-23T12:34:39.540Z,70.79
2023-02-23T12:37:31.495Z,71.03
2023-02-23T12:40:08.316Z,70.82
2023-02-23T12:43:17.801Z,70.78
2023-02-23T12:45:55.315Z,70.71
2023-02-23T12:48:41.115Z,71.03
2023-02-23T12:51:25.838Z,71.04
2023-02-23T12:53:53.454Z,71.35
2023-02-23T12:56:23.301Z,71.18
2023-02-23T12:59:14.615Z,71.35
2023-02-23T13:01:56.233Z,71.56
2023-02-23T13:04:55.279Z,71.67
2023-02-23T13:08:12.983Z,71.54
2023-02-23T13:11:09.924Z,71.54
2023-02-23T13:14:01.263Z,71.47
2023-02-23T13:16:51.727Z,71.54
2023-02-23T13:19:32.534Z,71.27
2023-02-23T13:22:08.024Z,71.23
2023-02-23T13:25:00.383Z,71.45
2023-02-23T13:27:47.105Z,71.57
2023-02-23T13:30:16.995Z,71.44
2023-02-23T13:33:06.515Z,71.46
2023-02-23T13:35:39.521Z,71.40
2023-02-23T13:38:35.014Z,71.50
2023-02-23T13:41:18.180Z,71.15
2023-02-23T13:44:22.674Z,71.12
2023-02-23T13:46:57.718Z,70.99
2023-02-23T13:49:36.497Z,71.04
2023-02-23T13:52:14.551Z,71.25
2023-02-23T13:54:53.573Z,71.15
2023-02-23T13:57:22.937Z,70.90
2023-02-23T13:59:51.641Z,70.95
2023-02-23T14:02:41.326Z,70.68
2023-02-23T14:05:18.876Z,70.44
2023-02-23T14:07:52.074Z,70.43
2023-02-23T14:10:29.961Z,70.51
2023-02-23T14:13:03.117Z,70.43
2023-02-23T14:15:39.705Z,70.53
2023-02-23T14:18:20.295Z,70.41
2023-02-23T14:20:53.649Z,70.54
2023-02-23T14:24:08.728Z,70.53
2023-02-23T14:26:39.302Z,70.57
2023-02-23T14:29:27.797Z,70.87
2023-02-23T14:32:05.030Z,70.81
2023-02-23T14:34:54.106Z,71.00
2023-02-23T14:37:26.011Z,71.35
2023-02-23T14:40:18.703Z,71.34
2023-02-23T14:42:53.818Z,71.47
2023-02-23T14:45:27.523Z,71.38
2023-02-23T14:48:17.438Z,71.46
2023-02-23T14:50:47.063Z,71.37
2023-02-23T14:53:22.346Z,71.47
2023-02-23T14:55:50.534Z,71.51
2023-02-23T14:58:35.469Z,71.33
2023-02-23T15:01:02.421Z,71.26
2023-02-23T15:03:30.590Z,71.39
2023-02-23T15:06:00.691Z,71.49
2023-02-23T15:08:30.566Z,71.34
2023-02-23T15:11:11.016Z,71.32
2023-02-23T15:13:42.777Z,71.51
2023-02-23T15:16:23.342Z,71.56
2023-02-23T15:19:31.133Z,71.49
2023-02-23T15:22:00.937Z,71.56
2023-02-23T15:24:42.653Z,71.54
2023-02-23T15:27:29.018Z,71.47
2023-02-23T15:29:57.122Z,71.34
2023-02-23T15:32:26.336Z,71.42
2023-02-23T15:34:56.631Z,71.50
2023-02-23T15:37:29.446Z,71.29
2023-02-23T15:40:05.464Z,71.34
2023-02-23T15:42:49.339Z,71.22
2023-02-23T15:45:54.698Z,71.35
2023-02-23T15:48:28.893Z,71.49
2023-02-23T15:50:57.998Z,71.19
2023-02-23T15:53:33.674Z,71.39
2023-02-23T15:56:28.131Z,71.56
2023-02-23T15:59:04.151Z,71.59
2023-02-23T16:01:32.755Z,71.61
2023-02-23T16:04:16.354Z,71.58
2023-02-23T16:06:55.790Z,71.86
2023-02-23T16:09:24.372Z,71.69
2023-02-23T16:12:04.992Z,71.75
2023-02-23T16:14:46.936Z,72.01
2023-02-23T16:17:21.535Z,72.07
2023-02-23T16:19:48.929Z,71.97
2023-02-23T16:22:23.382Z,71.97
2023-02-23T16:25:01.078Z,72.14
2023-02-23T16:27:30.426Z,72.12
2023-02-23T16:30:25.931Z,72.01
2023-02-23T16:33:11.862Z,72.24
2023-02-23T16:35:46.060Z,72.31
2023-02-23T16:38:33.624Z,72.28
2023-02-23T16:41:03.973Z,72.30
2023-02-23T16:43:35.516Z,72.32
2023-02-23T16:46:03.072Z,72.49
2023-02-23T16:48:30.472Z,72.43
2023-02-23T16:51:02.057Z,72.51
2023-02-23T16:53:30.333Z,72.63
2023-02-23T16:56:01.314Z,72.56
2023-02-23T16:58:30.908Z,72.57
2023-02-23T17:00:58.427Z,72.50
2023-02-23T17:03:27.677Z,72.68
2023-02-23T17:05:55.536Z,72.57
2023-02-23T17:08:23.384Z,72.67
2023-02-23T17:10:52.908Z,72.82
2023-02-23T17:13:25.484Z,72.84
2023-02-23T17:15:56.451Z,72.68
2023-02-23T17:18:31.989Z,72.78
2023-02-23T17:21:02.799Z,72.66
2023-02-23T17:23:50.933Z,72.70
2023-02-23T17:26:21.455Z,72.56
2023-02-23T17:28:49.169Z,72.64
2023-02-23T17:31:18.483Z,72.43
2023-02-23T17:33:46.510Z,72.34
2023-02-23T17:36:17.521Z,72.23
2023-02-23T17:38:48.008Z,72.36
2023-02-23T17:41:20.560Z,72.27
2023-02-23T17:43:47.794Z,72.21
2023-02-23T17:46:17.382Z,72.17
2023-02-23T17:48:46.885Z,72.18
2023-02-23T17:51:17.037Z,72.33
2023-02-23T17:53:45.521Z,72.28
2023-02-23T17:56:12.668Z,72.22
2023-02-23T17:58:40.573Z,72.51
2023-02-23T18:01:09.333Z,72.25
2023-02-23T18:03:37.506Z,72.38
2023-02-23T18:06:10.110Z,72.48
2023-02-23T18:08:38.791Z,72.39
2023-02-23T18:11:06.497Z,72.41
2023-02-23T18:13:41.386Z,72.61
2023-02-23T18:16:11.083Z,72.50
2023-02-23T18:18:39.950Z,72.60
2023-02-23T18:21:13.074Z,72.63
2023-02-23T18:23:41.830Z,72.58
2023-02-23T18:26:17.927Z,72.39
2023-02-23T18:28:46.380Z,72.62
2023-02-23T18:31:23.756Z,72.69
2023-02-23T18:33:55.053Z,72.76
2023-02-23T18:36:24.859Z,72.58
2023-02-23T18:38:52.560Z,72.69
2023-02-23T18:41:20.449Z,72.70
2023-02-23T18:43:48.081Z,72.85
2023-02-23T18:46:16.263Z,72.78
2023-02-23T18:48:44.160Z,72.84
2023-02-23T18:51:14.924Z,72.87
2023-02-23T18:53:42.844Z,72.88
2023-02-23T18:56:16.008Z,72.70
2023-02-23T18:58:45.186Z,72.79
2023-02-23T19:01:13.718Z,72.78
2023-02-23T19:03:41.891Z,72.72
2023-02-23T19:06:10.644Z,72.94
2023-02-23T19:08:37.961Z,73.16
2023-02-23T19:11:05.277Z,72.88
2023-02-23T19:13:32.242Z,72.82
2023-02-23T19:16:04.794Z,72.85
2023-02-23T19:18:32.229Z,72.92
2023-02-23T19:20:59.186Z,72.80
2023-02-23T19:23:26.130Z,72.96
2023-02-23T19:25:54.337Z,72.91
2023-02-23T19:28:22.491Z,72.97
2023-02-23T19:30:50.627Z,73.04
2023-02-23T19:33:18.629Z,72.94
2023-02-23T19:35:45.763Z,73.00
2023-02-23T19:38:12.843Z,72.98
2023-02-23T19:40:43.889Z,72.90
2023-02-23T19:43:12.763Z,72.85
2023-02-23T19:45:46.824Z,72.84
2023-02-23T19:48:15.939Z,72.80
2023-02-23T19:50:49.686Z,72.67
2023-02-23T19:53:16.957Z,72.57
2023-02-23T19:55:45.472Z,72.85
2023-02-23T19:58:13.425Z,72.87
2023-02-23T20:00:40.539Z,72.80
2023-02-23T20:03:07.618Z,72.72
2023-02-23T20:05:43.346Z,72.87
2023-02-23T20:08:10.431Z,72.73
2023-02-23T20:10:41.679Z,72.92
2023-02-23T20:13:08.822Z,72.81
2023-02-23T20:15:37.601Z,72.80
2023-02-23T20:18:07.393Z,72.75
2023-02-23T20:20:35.973Z,72.71
2023-02-23T20:23:08.275Z,72.75
2023-02-23T20:25:36.268Z,72.89
2023-02-23T20:28:03.884Z,72.72
2023-02-23T20:30:31.051Z,72.59
2023-02-23T20:33:02.448Z,72.40
2023-02-23T20:35:32.557Z,72.29
2023-02-23T20:38:00.016Z,72.56
2023-02-23T20:40:27.843Z,72.35
2023-02-23T20:42:54.885Z,72.45
2023-02-23T20:45:24.607Z,72.26
2023-02-23T20:47:53.481Z,72.42
2023-02-23T20:50:25.795Z,72.25
2023-02-23T20:52:52.857Z,72.27
2023-02-23T20:55:22.480Z,72.30
2023-02-23T20:57:49.707Z,72.35
2023-02-23T21:00:24.359Z,72.55
2023-02-23T21:02:55.863Z,72.66
2023-02-23T21:05:26.390Z,72.67
2023-02-23T21:07:53.568Z,72.87
2023-02-23T21:10:21.708Z,72.89
2023-02-23T21:12:50.223Z,73.08
2023-02-23T21:15:17.372Z,73.11
2023-02-23T21:17:44.628Z,73.25
2023-02-23T21:20:14.134Z,73.26
2023-02-23T21:22:41.233Z,73.28
2023-02-23T21:25:10.951Z,73.24
2023-02-23T21:27:39.600Z,73.36
2023-02-23T21:30:09.700Z,73.51
2023-02-23T21:32:41.550Z,73.48
2023-02-23T21:35:13.366Z,73.38
2023-02-23T21:37:42.033Z,73.43
2023-02-23T21:40:12.208Z,73.37
2023-02-23T21:42:41.079Z,73.41
2023-02-23T21:45:11.133Z,73.62
2023-02-23T21:47:41.851Z,73.59
2023-02-23T21:50:14.011Z,73.52
2023-02-23T21:52:46.096Z,73.44
2023-02-23T21:55:23.417Z,73.59
2023-02-23T21:57:52.107Z,73.72
2023-02-23T22:00:20.986Z,73.65
2023-02-23T22:02:48.553Z,73.69
2023-02-23T22:05:17.900Z,73.81
2023-02-23T22:07:50.239Z,73.77
2023-02-23T22:10:18.990Z,73.76
2023-02-23T22:12:46.184Z,73.67
2023-02-23T22:15:15.885Z,73.90
2023-02-23T22:17:44.446Z,73.85
2023-02-23T22:20:14.283Z,73.76
2023-02-23T22:22:43.017Z,73.80
2023-02-23T22:25:10.633Z,73.84
2023-02-23T22:27:37.913Z,73.88
2023-02-23T22:30:07.731Z,74.00
2023-02-23T22:32:36.941Z,74.05
2023-02-23T22:35:06.304Z,74.08
2023-02-23T22:37:33.854Z,74.05
2023-02-23T22:40:13.193Z,73.83
2023-02-23T22:42:40.235Z,73.99
2023-02-23T22:45:13.126Z,74.19
2023-02-23T22:47:43.358Z,73.89
2023-02-23T22:50:18.396Z,74.10
2023-02-23T22:55:38.788Z,73.87
2023-02-23T22:58:12.346Z,74.00
2023-02-23T23:00:42.129Z,73.86
2023-02-23T23:03:10.628Z,73.82
2023-02-23T23:05:39.786Z,73.90
2023-02-23T23:08:09.986Z,74.20
2023-02-23T23:10:38.170Z,74.23
2023-02-23T23:13:05.624Z,74.14
2023-02-23T23:15:32.872Z,74.16
2023-02-23T23:17:59.981Z,74.12
2023-02-23T23:20:26.927Z,74.31
2023-02-23T23:22:54.965Z,74.15
2023-02-23T23:25:23.454Z,74.35
2023-02-23T23:27:54.795Z,74.26
2023-02-23T23:30:21.847Z,74.23
2023-02-23T23:32:49.448Z,74.21
2023-02-23T23:35:16.840Z,74.15
2023-02-23T23:37:44.284Z,74.09
2023-02-23T23:40:14.564Z,74.13
2023-02-23T23:42:46.879Z,74.23
2023-02-23T23:45:16.492Z,74.31
2023-02-23T23:47:45.294Z,74.45
2023-02-23T23:50:14.496Z,74.41
2023-02-23T23:52:44.714Z,74.23
2023-02-23T23:55:15.194Z,74.31
2023-02-23T23:57:44.460Z,74.21
